createdAt,value
2023-02-01T00:00:38.741Z,0
2023-02-01T00:01:38.753Z,0
2023-02-01T00:02:38.844Z,0
2023-02-01T00:03:38.853Z,0
2023-02-01T00:04:38.860Z,0
2023-02-01T00:05:38.746Z,0
2023-02-01T00:06:38.749Z,0
2023-02-01T00:07:38.748Z,0
2023-02-01T00:08:38.764Z,0
2023-02-01T00:09:38.754Z,0
2023-02-01T00:10:38.752Z,0
2023-02-01T00:11:38.745Z,0
2023-02-01T00:12:38.753Z,0
2023-02-01T00:13:38.781Z,0
2023-02-01T00:14:38.761Z,0
2023-02-01T00:15:38.786Z,0
2023-02-01T00:16:38.750Z,0
2023-02-01T00:17:38.750Z,0
2023-02-01T00:18:38.761Z,0
2023-02-01T00:19:38.756Z,0
2023-02-01T00:20:38.751Z,0
2023-02-01T00:21:38.751Z,0
2023-02-01T00:22:38.755Z,0
2023-02-01T00:23:38.738Z,0
2023-02-01T00:24:38.759Z,0
2023-02-01T00:25:38.737Z,0
2023-02-01T00:26:38.920Z,0
2023-02-01T00:27:38.741Z,0
2023-02-01T00:28:38.747Z,0
2023-02-01T00:29:38.761Z,0
2023-02-01T00:30:38.774Z,0
2023-02-01T00:31:38.782Z,0
2023-02-01T00:32:38.809Z,0
2023-02-01T00:33:38.739Z,0
2023-02-01T00:34:38.750Z,0
2023-02-01T00:35:38.748Z,0
2023-02-01T00:36:38.736Z,0
2023-02-01T00:37:38.731Z,0
2023-02-01T00:38:38.756Z,0
2023-02-01T00:39:38.779Z,0
2023-02-01T00:40:38.743Z,0
2023-02-01T00:41:38.740Z,0
2023-02-01T00:42:38.758Z,0
2023-02-01T00:43:38.732Z,0
2023-02-01T00:44:38.752Z,0
2023-02-01T00:45:38.749Z,0
2023-02-01T00:46:38.775Z,0
2023-02-01T00:47:38.737Z,0
2023-02-01T00:48:38.732Z,0
2023-02-01T00:49:38.747Z,0
2023-02-01T00:50:38.743Z,0
2023-02-01T00:51:38.759Z,0
2023-02-01T00:52:38.747Z,0
2023-02-01T00:53:38.765Z,0
2023-02-01T00:54:38.804Z,0
2023-02-01T00:55:38.750Z,0
2023-02-01T00:56:38.757Z,0
2023-02-01T00:57:38.759Z,0
2023-02-01T00:58:38.748Z,0
2023-02-01T00:59:38.768Z,0
2023-02-01T01:00:38.778Z,0
2023-02-01T01:01:38.819Z,0
2023-02-01T01:02:38.753Z,0
2023-02-01T01:03:38.757Z,0
2023-02-01T01:04:38.764Z,0
2023-02-01T01:05:38.750Z,0
2023-02-01T01:06:38.756Z,0
2023-02-01T01:07:38.758Z,0
2023-02-01T01:08:38.779Z,0
2023-02-01T01:09:38.782Z,0
2023-02-01T01:10:38.751Z,0
2023-02-01T01:11:38.766Z,0
2023-02-01T01:12:38.777Z,0
2023-02-01T01:13:38.765Z,0
2023-02-01T01:14:38.760Z,0
2023-02-01T01:15:38.751Z,0
2023-02-01T01:16:38.760Z,0
2023-02-01T01:17:38.837Z,0
2023-02-01T01:18:38.744Z,0
2023-02-01T01:19:38.767Z,0
2023-02-01T01:20:38.747Z,0
2023-02-01T01:21:38.749Z,0
2023-02-01T01:22:38.749Z,0
2023-02-01T01:23:38.787Z,0
2023-02-01T01:24:38.751Z,0
2023-02-01T01:25:38.754Z,0
2023-02-01T01:26:38.793Z,0
2023-02-01T01:27:38.818Z,0
2023-02-01T01:28:38.755Z,0
2023-02-01T01:29:38.782Z,0
2023-02-01T01:30:38.744Z,0
2023-02-01T01:31:38.802Z,0
2023-02-01T01:32:38.743Z,0
2023-02-01T01:33:38.865Z,0
2023-02-01T01:34:38.764Z,0
2023-02-01T01:35:38.731Z,0
2023-02-01T01:36:38.752Z,0
2023-02-01T01:37:38.735Z,0
2023-02-01T01:38:38.738Z,0
2023-02-01T01:39:38.747Z,0
2023-02-01T01:40:38.738Z,0
2023-02-01T01:41:38.735Z,0
2023-02-01T01:42:38.745Z,0
2023-02-01T01:43:38.738Z,0
2023-02-01T01:44:38.750Z,0
2023-02-01T01:45:38.735Z,0
2023-02-01T01:46:38.904Z,0
2023-02-01T01:47:38.731Z,0
2023-02-01T01:48:38.735Z,0
2023-02-01T01:49:38.761Z,0
2023-02-01T01:50:38.740Z,0
2023-02-01T01:51:38.733Z,0
2023-02-01T01:52:38.751Z,0
2023-02-01T01:53:38.734Z,0
2023-02-01T01:54:38.748Z,0
2023-02-01T01:55:38.734Z,0
2023-02-01T01:56:38.738Z,0
2023-02-01T01:57:38.748Z,0
2023-02-01T01:58:38.732Z,0
2023-02-01T01:59:38.779Z,0
2023-02-01T02:00:38.771Z,0
2023-02-01T02:01:38.789Z,0
2023-02-01T02:02:38.738Z,0
2023-02-01T02:03:38.801Z,0
2023-02-01T02:04:38.775Z,0
2023-02-01T02:05:38.744Z,0
2023-02-01T02:06:38.742Z,0
2023-02-01T02:07:38.748Z,0
2023-02-01T02:08:38.745Z,0
2023-02-01T02:09:41.290Z,0
2023-02-01T02:10:38.750Z,0
2023-02-01T02:11:38.753Z,0
2023-02-01T02:12:38.754Z,0
2023-02-01T02:13:38.748Z,0
2023-02-01T02:14:38.772Z,0
2023-02-01T02:15:38.744Z,0
2023-02-01T02:16:38.773Z,0
2023-02-01T02:17:38.746Z,0
2023-02-01T02:18:38.758Z,0
2023-02-01T02:19:38.776Z,0
2023-02-01T02:20:38.777Z,0
2023-02-01T02:21:38.752Z,0
2023-02-01T02:22:38.838Z,0
2023-02-01T02:23:38.750Z,0
2023-02-01T02:24:38.756Z,0
2023-02-01T02:25:38.746Z,0
2023-02-01T02:26:38.798Z,0
2023-02-01T02:27:38.751Z,0
2023-02-01T02:28:38.753Z,0
2023-02-01T02:29:38.782Z,0
2023-02-01T02:30:38.764Z,0
2023-02-01T02:31:38.829Z,0
2023-02-01T02:32:38.750Z,0
2023-02-01T02:33:38.745Z,0
2023-02-01T02:34:38.770Z,0
2023-02-01T02:35:38.750Z,0
2023-02-01T02:36:38.738Z,0
2023-02-01T02:37:38.764Z,0
2023-02-01T02:38:38.764Z,0
2023-02-01T02:39:38.767Z,0
2023-02-01T02:40:38.745Z,0
2023-02-01T02:41:38.746Z,0
2023-02-01T02:42:38.754Z,0
2023-02-01T02:43:38.751Z,0
2023-02-01T02:44:38.772Z,0
2023-02-01T02:45:38.796Z,0
2023-02-01T02:46:38.752Z,0
2023-02-01T02:47:38.738Z,0
2023-02-01T02:48:38.750Z,0
2023-02-01T02:49:38.752Z,0
2023-02-01T02:50:38.739Z,0
2023-02-01T02:51:38.742Z,0
2023-02-01T02:52:38.730Z,0
2023-02-01T02:53:38.730Z,0
2023-02-01T02:54:38.762Z,0
2023-02-01T02:55:38.731Z,0
2023-02-01T02:56:38.742Z,0
2023-02-01T02:57:38.739Z,0
2023-02-01T02:58:38.750Z,0
2023-02-01T02:59:38.766Z,0
2023-02-01T03:00:38.732Z,0
2023-02-01T03:01:38.736Z,0
2023-02-01T03:02:38.783Z,0
2023-02-01T03:03:38.734Z,0
2023-02-01T03:04:38.750Z,0
2023-02-01T03:05:38.735Z,0
2023-02-01T03:06:38.739Z,0
2023-02-01T03:07:38.730Z,0
2023-02-01T03:08:38.734Z,0
2023-02-01T03:09:38.754Z,0
2023-02-01T03:10:38.738Z,0
2023-02-01T03:11:38.743Z,0
2023-02-01T03:12:38.737Z,0
2023-02-01T03:13:38.732Z,0
2023-02-01T03:14:38.768Z,0
2023-02-01T03:15:38.746Z,0
2023-02-01T03:16:38.747Z,0
2023-02-01T03:17:38.758Z,0
2023-02-01T03:18:38.744Z,0
2023-02-01T03:19:38.787Z,0
2023-02-01T03:20:38.750Z,0
2023-02-01T03:21:38.743Z,0
2023-02-01T03:22:38.755Z,0
2023-02-01T03:23:38.795Z,0
2023-02-01T03:24:38.777Z,0
2023-02-01T03:25:38.758Z,0
2023-02-01T03:26:38.756Z,0
2023-02-01T03:27:38.759Z,0
2023-02-01T03:28:38.750Z,0
2023-02-01T03:29:38.837Z,0
2023-02-01T03:30:38.822Z,0
2023-02-01T03:31:38.772Z,0
2023-02-01T03:32:38.755Z,0
2023-02-01T03:33:38.747Z,0
2023-02-01T03:34:38.765Z,0
2023-02-01T03:35:38.786Z,0
2023-02-01T03:36:38.745Z,0
2023-02-01T03:37:38.755Z,0
2023-02-01T03:38:38.745Z,0
2023-02-01T03:39:38.775Z,0
2023-02-01T03:40:38.749Z,0
2023-02-01T03:41:38.752Z,0
2023-02-01T03:42:38.750Z,0
2023-02-01T03:43:38.756Z,0
2023-02-01T03:44:38.759Z,0
2023-02-01T03:45:38.765Z,0
2023-02-01T03:46:38.749Z,0
2023-02-01T03:47:38.748Z,0
2023-02-01T03:48:38.757Z,0
2023-02-01T03:49:38.761Z,0
2023-02-01T03:50:38.752Z,0
2023-02-01T03:51:38.781Z,0
2023-02-01T03:52:38.757Z,0
2023-02-01T03:53:38.752Z,0
2023-02-01T03:54:38.760Z,0
2023-02-01T03:55:38.750Z,0
2023-02-01T03:56:38.760Z,0
2023-02-01T03:57:38.753Z,0
2023-02-01T03:58:38.757Z,0
2023-02-01T03:59:38.754Z,0
2023-02-01T04:00:38.736Z,0
2023-02-01T04:01:38.757Z,0
2023-02-01T04:02:38.880Z,0
2023-02-01T04:03:38.740Z,0
2023-02-01T04:04:38.741Z,0
2023-02-01T04:05:38.734Z,0
2023-02-01T04:06:38.740Z,0
2023-02-01T04:07:38.731Z,0
2023-02-01T04:08:38.737Z,0
2023-02-01T04:09:38.746Z,0
2023-02-01T04:10:38.742Z,0
2023-02-01T04:11:38.752Z,0
2023-02-01T04:12:38.730Z,0
2023-02-01T04:13:38.734Z,0
2023-02-01T04:14:38.750Z,0
2023-02-01T04:15:38.737Z,0
2023-02-01T04:16:38.795Z,0
2023-02-01T04:17:38.737Z,0
2023-02-01T04:18:38.734Z,0
2023-02-01T04:19:38.742Z,0
2023-02-01T04:20:38.746Z,0
2023-02-01T04:21:38.735Z,0
2023-02-01T04:22:38.735Z,0
2023-02-01T04:23:38.747Z,0
2023-02-01T04:24:38.746Z,0
2023-02-01T04:25:38.727Z,0
2023-02-01T04:26:38.939Z,0
2023-02-01T04:28:38.731Z,0
2023-02-01T04:29:38.784Z,0
2023-02-01T04:30:38.807Z,0
2023-02-01T04:31:38.964Z,0
2023-02-01T04:32:38.735Z,0
2023-02-01T04:33:38.763Z,0
2023-02-01T04:34:38.819Z,0
2023-02-01T04:35:38.738Z,0
2023-02-01T04:36:38.756Z,0
2023-02-01T04:37:38.837Z,0
2023-02-01T04:38:38.758Z,0
2023-02-01T04:39:38.785Z,0
2023-02-01T04:40:38.746Z,0
2023-02-01T04:41:38.755Z,0
2023-02-01T04:42:38.773Z,0
2023-02-01T04:43:38.758Z,0
2023-02-01T04:44:38.760Z,0
2023-02-01T04:45:38.756Z,0
2023-02-01T04:46:38.752Z,0
2023-02-01T04:47:38.745Z,0
2023-02-01T04:48:38.743Z,0
2023-02-01T04:49:38.761Z,0
2023-02-01T04:50:38.758Z,0
2023-02-01T04:51:38.777Z,0
2023-02-01T04:52:38.747Z,0
2023-02-01T04:53:38.744Z,0
2023-02-01T04:54:38.763Z,0
2023-02-01T04:55:38.751Z,0
2023-02-01T04:56:38.762Z,0
2023-02-01T04:57:38.755Z,0
2023-02-01T04:58:38.760Z,0
2023-02-01T04:59:38.767Z,0
2023-02-01T05:00:38.746Z,0
2023-02-01T05:01:38.807Z,0
2023-02-01T05:02:38.760Z,0
2023-02-01T05:03:38.743Z,0
2023-02-01T05:04:38.795Z,0
2023-02-01T05:05:38.764Z,0
2023-02-01T05:06:38.752Z,0
2023-02-01T05:07:38.760Z,0
2023-02-01T05:08:38.996Z,0
2023-02-01T05:09:38.763Z,0
2023-02-01T05:10:38.742Z,0
2023-02-01T05:11:38.762Z,0
2023-02-01T05:12:38.743Z,0
2023-02-01T05:13:38.741Z,0
2023-02-01T05:14:38.771Z,0
2023-02-01T05:15:38.784Z,0
2023-02-01T05:16:38.737Z,0
2023-02-01T05:17:38.742Z,0
2023-02-01T05:18:38.732Z,0
2023-02-01T05:19:38.756Z,0
2023-02-01T05:20:38.845Z,0
2023-02-01T05:21:38.741Z,0
2023-02-01T05:22:38.746Z,0
2023-02-01T05:23:38.732Z,0
2023-02-01T05:24:38.747Z,0
2023-02-01T05:25:38.731Z,0
2023-02-01T05:26:38.848Z,0
2023-02-01T05:27:38.823Z,0
2023-02-01T05:28:38.731Z,0
2023-02-01T05:29:38.912Z,0
2023-02-01T05:30:41.183Z,0
2023-02-01T05:31:38.837Z,0
2023-02-01T05:32:38.734Z,0
2023-02-01T05:33:38.744Z,0
2023-02-01T05:34:38.749Z,0
2023-02-01T05:35:38.744Z,0
2023-02-01T05:36:38.751Z,0
2023-02-01T05:37:38.745Z,0
2023-02-01T05:38:38.736Z,0
2023-02-01T05:39:38.750Z,0
2023-02-01T05:40:38.737Z,0
2023-02-01T05:41:38.735Z,0
2023-02-01T05:42:38.757Z,0
2023-02-01T05:43:38.765Z,0
2023-02-01T05:44:38.756Z,0
2023-02-01T05:45:38.750Z,0
2023-02-01T05:46:38.826Z,0
2023-02-01T05:47:38.761Z,0
2023-02-01T05:48:38.753Z,0
2023-02-01T05:49:38.770Z,0
2023-02-01T05:50:38.735Z,0
2023-02-01T05:51:38.749Z,0
2023-02-01T05:52:38.746Z,0
2023-02-01T05:53:38.759Z,0
2023-02-01T05:54:38.769Z,0
2023-02-01T05:55:38.736Z,0
2023-02-01T05:56:38.751Z,0
2023-02-01T05:57:38.759Z,0
2023-02-01T05:58:38.812Z,0
2023-02-01T05:59:38.752Z,0
2023-02-01T06:00:38.735Z,0
2023-02-01T06:01:38.760Z,0
2023-02-01T06:02:38.801Z,0
2023-02-01T06:03:38.795Z,0
2023-02-01T06:04:38.766Z,0
2023-02-01T06:05:38.749Z,0
2023-02-01T06:06:38.747Z,0
2023-02-01T06:07:38.746Z,0
2023-02-01T06:08:38.757Z,0
2023-02-01T06:09:38.765Z,0
2023-02-01T06:10:38.736Z,0
2023-02-01T06:11:38.748Z,0
2023-02-01T06:12:38.754Z,0
2023-02-01T06:13:38.749Z,0
2023-02-01T06:14:38.772Z,0
2023-02-01T06:15:38.894Z,0
2023-02-01T06:16:38.751Z,0
2023-02-01T06:17:38.752Z,0
2023-02-01T06:18:38.786Z,0
2023-02-01T06:19:38.760Z,0
2023-02-01T06:20:38.733Z,0
2023-02-01T06:21:38.760Z,0
2023-02-01T06:22:38.754Z,0
2023-02-01T06:23:38.744Z,0
2023-02-01T06:24:38.763Z,0
2023-02-01T06:25:38.773Z,0
2023-02-01T06:26:38.791Z,0
2023-02-01T06:27:38.732Z,0
2023-02-01T06:28:38.735Z,0
2023-02-01T06:29:39.000Z,0
2023-02-01T06:30:38.747Z,0
2023-02-01T06:31:38.786Z,0
2023-02-01T06:32:38.736Z,0
2023-02-01T06:33:38.746Z,0
2023-02-01T06:34:38.750Z,0.01
2023-02-01T06:35:38.739Z,0.01
2023-02-01T06:36:38.730Z,0.01
2023-02-01T06:37:38.735Z,0.01
2023-02-01T06:38:38.734Z,0.01
2023-02-01T06:39:38.743Z,0.01
2023-02-01T06:40:38.734Z,0.01
2023-02-01T06:41:38.776Z,0.02
2023-02-01T06:42:38.743Z,0.02
2023-02-01T06:43:38.732Z,0.02
2023-02-01T06:44:38.746Z,0.02
2023-02-01T06:45:38.734Z,0.02
2023-02-01T06:46:38.762Z,0.02
2023-02-01T06:47:38.736Z,0.02
2023-02-01T06:48:38.784Z,0.02
2023-02-01T06:49:38.745Z,0.03
2023-02-01T06:50:38.766Z,0.03
2023-02-01T06:51:38.739Z,0.03
2023-02-01T06:52:38.742Z,0.03
2023-02-01T06:53:38.731Z,0.03
2023-02-01T06:54:38.749Z,0.03
2023-02-01T06:55:38.733Z,0.03
2023-02-01T06:56:38.739Z,0.03
2023-02-01T06:57:38.738Z,0.03
2023-02-01T06:58:38.749Z,0.04
2023-02-01T06:59:38.773Z,0.05
2023-02-01T07:00:38.757Z,0.06
2023-02-01T07:01:38.810Z,0.06
2023-02-01T07:02:38.748Z,0.07
2023-02-01T07:03:38.773Z,0.07
2023-02-01T07:04:38.767Z,0.08
2023-02-01T07:05:38.746Z,0.08
2023-02-01T07:06:38.748Z,0.08
2023-02-01T07:07:38.744Z,0.09
2023-02-01T07:08:38.750Z,0.09
2023-02-01T07:09:38.765Z,0.11
2023-02-01T07:10:38.733Z,0.11
2023-02-01T07:11:38.754Z,0.1
2023-02-01T07:12:38.748Z,0.11
2023-02-01T07:13:38.757Z,0.11
2023-02-01T07:14:38.759Z,0.12
2023-02-01T07:15:38.761Z,0.13
2023-02-01T07:16:38.793Z,0.13
2023-02-01T07:17:38.755Z,0.13
2023-02-01T07:18:38.764Z,0.13
2023-02-01T07:19:38.776Z,0.13
2023-02-01T07:20:38.734Z,0.13
2023-02-01T07:21:38.749Z,0.18
2023-02-01T07:22:38.764Z,0.19
2023-02-01T07:23:38.785Z,0.18
2023-02-01T07:24:38.755Z,0.16
2023-02-01T07:25:38.747Z,0.15
2023-02-01T07:26:38.850Z,0.2
2023-02-01T07:27:38.749Z,0.21
2023-02-01T07:28:38.810Z,0.21
2023-02-01T07:29:38.817Z,0.22
2023-02-01T07:30:38.772Z,0.24
2023-02-01T07:31:38.780Z,0.24
2023-02-01T07:32:38.898Z,0.25
2023-02-01T07:33:38.755Z,0.24
2023-02-01T07:34:38.757Z,0.24
2023-02-01T07:35:38.755Z,0.24
2023-02-01T07:36:38.734Z,0.22
2023-02-01T07:37:38.765Z,0.18
2023-02-01T07:38:38.767Z,0.21
2023-02-01T07:39:38.757Z,0.24
2023-02-01T07:40:38.735Z,0.24
2023-02-01T07:41:38.740Z,0.25
2023-02-01T07:42:38.731Z,0.25
2023-02-01T07:43:38.737Z,0.25
2023-02-01T07:44:38.758Z,0.24
2023-02-01T07:45:38.782Z,0.25
2023-02-01T07:46:38.733Z,0.25
2023-02-01T07:47:38.740Z,0.26
2023-02-01T07:48:38.741Z,0.28
2023-02-01T07:49:38.766Z,0.31
2023-02-01T07:50:38.739Z,0.28
2023-02-01T07:51:38.735Z,0.32
2023-02-01T07:52:38.732Z,0.32
2023-02-01T07:53:38.757Z,0.34
2023-02-01T07:54:38.739Z,0.34
2023-02-01T07:55:38.735Z,0.31
2023-02-01T07:56:38.733Z,0.29
2023-02-01T07:57:38.738Z,0.28
2023-02-01T07:58:38.739Z,0.27
2023-02-01T07:59:38.778Z,0.23
2023-02-01T08:00:38.824Z,0.23
2023-02-01T08:01:38.743Z,0.25
2023-02-01T08:02:38.738Z,0.28
2023-02-01T08:03:38.736Z,0.29
2023-02-01T08:04:38.745Z,0.29
2023-02-01T08:05:38.738Z,0.28
2023-02-01T08:06:38.729Z,0.28
2023-02-01T08:07:38.737Z,0.28
2023-02-01T08:08:38.739Z,0.28
2023-02-01T08:09:38.750Z,0.29
2023-02-01T08:10:38.749Z,0.29
2023-02-01T08:11:38.743Z,0.21
2023-02-01T08:12:38.764Z,0.13
2023-02-01T08:13:38.764Z,0.12
2023-02-01T08:14:38.782Z,0.12
2023-02-01T08:15:38.753Z,0.14
2023-02-01T08:16:38.899Z,0.15
2023-02-01T08:17:38.761Z,0.17
2023-02-01T08:18:38.758Z,0.19
2023-02-01T08:19:38.745Z,0.24
2023-02-01T08:20:38.727Z,0.24
2023-02-01T08:21:38.757Z,0.31
2023-02-01T08:22:38.763Z,0.39
2023-02-01T08:23:38.747Z,0.42
2023-02-01T08:24:38.775Z,0.44
2023-02-01T08:25:38.744Z,0.41
2023-02-01T08:26:38.822Z,0.41
2023-02-01T08:27:38.764Z,0.37
2023-02-01T08:28:38.771Z,0.41
2023-02-01T08:29:38.768Z,0.41
2023-02-01T08:30:38.778Z,0.41
2023-02-01T08:31:38.807Z,0.41
2023-02-01T08:32:38.764Z,0.43
2023-02-01T08:33:38.753Z,0.45
2023-02-01T08:34:38.765Z,0.45
2023-02-01T08:35:43.815Z,0.49
2023-02-01T08:36:38.747Z,0.49
2023-02-01T08:37:38.759Z,0.47
2023-02-01T08:38:38.739Z,0.44
2023-02-01T08:39:38.756Z,0.42
2023-02-01T08:40:38.736Z,0.42
2023-02-01T08:41:38.759Z,0.39
2023-02-01T08:42:38.755Z,0.4
2023-02-01T08:43:38.746Z,0.4
2023-02-01T08:44:38.765Z,0.42
2023-02-01T08:45:38.895Z,0.4
2023-02-01T08:46:38.745Z,0.4
2023-02-01T08:47:38.749Z,0.41
2023-02-01T08:48:38.748Z,0.44
2023-02-01T08:49:38.770Z,0.46
2023-02-01T08:50:38.735Z,0.46
2023-02-01T08:51:38.746Z,0.43
2023-02-01T08:52:38.752Z,0.44
2023-02-01T08:53:38.747Z,0.42
2023-02-01T08:54:38.757Z,0.43
2023-02-01T08:55:38.746Z,0.47
2023-02-01T08:56:38.802Z,0.47
2023-02-01T08:57:38.739Z,0.51
2023-02-01T08:58:38.836Z,0.49
2023-02-01T08:59:38.742Z,0.5
2023-02-01T09:00:38.743Z,0.57
2023-02-01T09:01:38.865Z,0.58
2023-02-01T09:02:38.737Z,0.59
2023-02-01T09:03:38.767Z,0.62
2023-02-01T09:04:38.876Z,0.63
2023-02-01T09:05:49.161Z,0.6
2023-02-01T09:06:38.731Z,0.62
2023-02-01T09:07:38.735Z,0.69
2023-02-01T09:08:38.774Z,0.75
2023-02-01T09:09:38.753Z,0.81
2023-02-01T09:10:39.020Z,0.74
2023-02-01T09:11:38.736Z,0.73
2023-02-01T09:12:38.746Z,0.76
2023-02-01T09:13:38.741Z,0.68
2023-02-01T09:14:38.805Z,0.65
2023-02-01T09:15:38.802Z,0.64
2023-02-01T09:16:38.736Z,0.64
2023-02-01T09:17:38.843Z,0.86
2023-02-01T09:18:46.097Z,0.97
2023-02-01T09:19:38.749Z,0.98
2023-02-01T09:20:38.745Z,0.98
2023-02-01T09:21:38.737Z,0.86
2023-02-01T09:22:38.729Z,0.66
2023-02-01T09:23:38.733Z,0.71
2023-02-01T09:24:38.841Z,0.66
2023-02-01T09:25:38.788Z,0.51
2023-02-01T09:26:38.779Z,0.52
2023-02-01T09:27:38.738Z,0.52
2023-02-01T09:28:38.744Z,0.56
2023-02-01T09:29:38.790Z,0.62
2023-02-01T09:30:38.847Z,0.62
2023-02-01T09:31:40.114Z,0.86
2023-02-01T09:32:38.754Z,0.95
2023-02-01T09:33:38.762Z,0.89
2023-02-01T09:34:38.783Z,0.89
2023-02-01T09:35:38.751Z,0.99
2023-02-01T09:36:38.770Z,0.87
2023-02-01T09:37:38.747Z,0.67
2023-02-01T09:38:41.774Z,0.67
2023-02-01T09:39:38.762Z,0.86
2023-02-01T09:40:38.746Z,0.86
2023-02-01T09:41:38.764Z,0.71
2023-02-01T09:42:38.744Z,0.99
2023-02-01T09:43:38.750Z,1.42
2023-02-01T09:44:44.108Z,1.28
2023-02-01T09:45:38.745Z,1.23
2023-02-01T09:46:38.767Z,1.27
2023-02-01T09:47:38.746Z,1.28
2023-02-01T09:48:38.748Z,1.66
2023-02-01T09:49:38.758Z,1.72
2023-02-01T09:50:38.729Z,1.72
2023-02-01T09:51:38.754Z,1.69
2023-02-01T09:52:38.749Z,1.86
2023-02-01T09:53:38.753Z,1.73
2023-02-01T09:54:38.755Z,1.62
2023-02-01T09:55:38.866Z,1.06
2023-02-01T09:56:38.747Z,1.03
2023-02-01T09:57:38.753Z,1.03
2023-02-01T09:58:38.750Z,1.11
2023-02-01T09:59:38.761Z,1.12
2023-02-01T10:00:38.736Z,1.12
2023-02-01T10:01:38.813Z,1.3
2023-02-01T10:02:38.745Z,1.23
2023-02-01T10:03:38.859Z,1.22
2023-02-01T10:04:38.753Z,1.17
2023-02-01T10:05:38.754Z,1.25
2023-02-01T10:06:38.754Z,1.27
2023-02-01T10:07:38.755Z,1.24
2023-02-01T10:08:38.753Z,1.24
2023-02-01T10:09:38.752Z,1.44
2023-02-01T10:10:38.732Z,1.44
2023-02-01T10:11:38.749Z,1.39
2023-02-01T10:12:38.757Z,1.39
2023-02-01T10:13:38.735Z,1.45
2023-02-01T10:14:38.746Z,1.59
2023-02-01T10:15:38.858Z,1.59
2023-02-01T10:16:38.781Z,1.87
2023-02-01T10:17:38.732Z,2.24
2023-02-01T10:18:38.741Z,2.38
2023-02-01T10:19:38.740Z,2.11
2023-02-01T10:20:38.734Z,1.77
2023-02-01T10:21:38.730Z,1.59
2023-02-01T10:23:03.599Z,1.48
2023-02-01T10:23:38.745Z,1.23
2023-02-01T10:24:38.753Z,0.94
2023-02-01T10:25:38.737Z,0.71
2023-02-01T10:26:38.778Z,0.63
2023-02-01T10:27:38.757Z,0.55
2023-02-01T10:28:38.728Z,0.54
2023-02-01T10:29:38.925Z,0.51
2023-02-01T10:30:38.768Z,0.51
2023-02-01T10:31:38.859Z,0.51
2023-02-01T10:32:38.746Z,0.49
2023-02-01T10:33:38.740Z,0.5
2023-02-01T10:34:38.751Z,0.57
2023-02-01T10:35:38.738Z,0.64
2023-02-01T10:36:38.735Z,0.71
2023-02-01T10:37:38.728Z,0.76
2023-02-01T10:38:38.740Z,0.89
2023-02-01T10:39:38.746Z,0.9
2023-02-01T10:40:38.740Z,0.9
2023-02-01T10:41:38.747Z,0.8
2023-02-01T10:42:38.747Z,0.71
2023-02-01T10:43:38.734Z,0.64
2023-02-01T10:44:38.768Z,0.59
2023-02-01T10:45:38.744Z,0.59
2023-02-01T10:46:38.785Z,0.5
2023-02-01T10:47:38.740Z,0.54
2023-02-01T10:48:38.748Z,0.56
2023-02-01T10:49:38.773Z,0.55
2023-02-01T10:50:38.741Z,0.54
2023-02-01T10:51:38.777Z,0.57
2023-02-01T10:52:38.766Z,0.54
2023-02-01T10:53:38.838Z,0.44
2023-02-01T10:54:38.772Z,0.37
2023-02-01T10:55:40.751Z,0.35
2023-02-01T10:56:38.759Z,0.38
2023-02-01T10:57:38.749Z,0.37
2023-02-01T10:58:38.780Z,0.38
2023-02-01T10:59:38.773Z,0.42
2023-02-01T11:00:38.731Z,0.42
2023-02-01T11:01:38.827Z,0.52
2023-02-01T11:02:38.794Z,0.57
2023-02-01T11:03:38.754Z,0.65
2023-02-01T11:04:38.760Z,0.64
2023-02-01T11:05:38.749Z,0.69
2023-02-01T11:06:38.768Z,0.69
2023-02-01T11:07:38.745Z,0.83
2023-02-01T11:08:38.732Z,0.74
2023-02-01T11:09:38.745Z,0.73
2023-02-01T11:10:38.775Z,0.73
2023-02-01T11:11:38.756Z,0.74
2023-02-01T11:12:38.866Z,0.74
2023-02-01T11:13:38.745Z,0.73
2023-02-01T11:14:38.759Z,0.74
2023-02-01T11:15:38.788Z,0.88
2023-02-01T11:16:38.744Z,0.97
2023-02-01T11:17:38.751Z,1.24
2023-02-01T11:18:38.863Z,0.9
2023-02-01T11:19:38.769Z,0.75
2023-02-01T11:20:38.743Z,0.75
2023-02-01T11:21:39.536Z,0.44
2023-02-01T11:22:38.771Z,0.39
2023-02-01T11:23:38.739Z,0.34
2023-02-01T11:24:38.748Z,0.32
2023-02-01T11:25:38.753Z,0.37
2023-02-01T11:26:38.781Z,0.39
2023-02-01T11:27:49.547Z,0.31
2023-02-01T11:28:38.733Z,0.27
2023-02-01T11:29:38.891Z,0.27
2023-02-01T11:30:38.773Z,0.27
2023-02-01T11:31:38.785Z,0.25
2023-02-01T11:32:38.732Z,0.34
2023-02-01T11:33:38.741Z,0.37
2023-02-01T11:34:38.798Z,0.4
2023-02-01T11:35:38.737Z,0.43
2023-02-01T11:36:38.743Z,0.78
2023-02-01T11:37:38.736Z,0.58
2023-02-01T11:38:38.735Z,0.69
2023-02-01T11:39:38.753Z,0.67
2023-02-01T11:40:38.754Z,0.67
2023-02-01T11:41:38.736Z,0.6
2023-02-01T11:42:38.733Z,0.43
2023-02-01T11:43:38.733Z,0.69
2023-02-01T11:44:38.752Z,0.93
2023-02-01T11:45:38.789Z,0.99
2023-02-01T11:46:38.872Z,1.23
2023-02-01T11:47:38.743Z,1.35
2023-02-01T11:48:38.735Z,1.31
2023-02-01T11:49:38.761Z,1.03
2023-02-01T11:50:38.754Z,1.03
2023-02-01T11:51:38.730Z,0.8
2023-02-01T11:52:38.763Z,0.71
2023-02-01T11:53:38.741Z,0.62
2023-02-01T11:54:38.772Z,0.58
2023-02-01T11:55:38.794Z,0.57
2023-02-01T11:56:38.747Z,0.75
2023-02-01T11:57:38.754Z,0.83
2023-02-01T11:58:38.749Z,0.92
2023-02-01T11:59:40.932Z,0.74
2023-02-01T12:00:38.746Z,0.56
2023-02-01T12:01:38.797Z,0.67
2023-02-01T12:02:38.854Z,0.7
2023-02-01T12:03:38.829Z,0.65
2023-02-01T12:04:38.759Z,0.54
2023-02-01T12:05:38.755Z,0.51
2023-02-01T12:06:38.754Z,0.58
2023-02-01T12:07:38.749Z,0.5
2023-02-01T12:08:38.742Z,0.66
2023-02-01T12:09:38.765Z,0.84
2023-02-01T12:10:38.755Z,0.84
2023-02-01T12:11:38.749Z,1.52
2023-02-01T12:12:38.754Z,3.12
2023-02-01T12:13:38.752Z,1.74
2023-02-01T12:14:38.773Z,1.72
2023-02-01T12:15:38.747Z,1.41
2023-02-01T12:16:38.825Z,1.29
2023-02-01T12:17:38.762Z,1.05
2023-02-01T12:18:38.754Z,1.35
2023-02-01T12:19:38.763Z,1.61
2023-02-01T12:20:38.737Z,1.61
2023-02-01T12:21:38.746Z,0.82
2023-02-01T12:22:38.747Z,0.8
2023-02-01T12:23:38.756Z,0.51
2023-02-01T12:24:38.777Z,0.28
2023-02-01T12:25:38.730Z,0.14
2023-02-01T12:26:38.833Z,0.15
2023-02-01T12:27:38.784Z,0.28
2023-02-01T12:28:38.755Z,0.39
2023-02-01T12:29:38.813Z,0.48
2023-02-01T12:30:38.763Z,0.48
2023-02-01T12:31:38.785Z,0.67
2023-02-01T12:32:38.748Z,1.32
2023-02-01T12:33:38.794Z,1.61
2023-02-01T12:34:38.769Z,1.67
2023-02-01T12:35:38.736Z,1.6
2023-02-01T12:36:38.735Z,1.52
2023-02-01T12:37:38.762Z,1.11
2023-02-01T12:38:38.763Z,1.11
2023-02-01T12:39:38.756Z,1.3
2023-02-01T12:40:38.731Z,1.3
2023-02-01T12:41:38.738Z,1.49
2023-02-01T12:42:38.731Z,0.92
2023-02-01T12:43:38.736Z,0.74
2023-02-01T12:44:38.747Z,0.5
2023-02-01T12:45:38.794Z,0.34
2023-02-01T12:46:38.856Z,0.29
2023-02-01T12:47:38.734Z,0.39
2023-02-01T12:48:38.735Z,0.44
2023-02-01T12:49:38.802Z,0.41
2023-02-01T12:50:38.729Z,0.41
2023-02-01T12:51:38.745Z,0.43
2023-02-01T12:52:38.846Z,0.59
2023-02-01T12:53:38.742Z,0.85
2023-02-01T12:54:38.745Z,0.88
2023-02-01T12:55:38.738Z,0.46
2023-02-01T12:56:38.739Z,0.48
2023-02-01T12:57:38.749Z,0.72
2023-02-01T12:58:38.741Z,0.89
2023-02-01T12:59:38.747Z,0.89
2023-02-01T13:00:38.737Z,0.89
2023-02-01T13:01:38.739Z,1.26
2023-02-01T13:02:38.841Z,1.36
2023-02-01T13:03:38.749Z,1.47
2023-02-01T13:04:38.751Z,1.43
2023-02-01T13:05:38.751Z,0.89
2023-02-01T13:06:38.750Z,0.82
2023-02-01T13:07:38.746Z,0.93
2023-02-01T13:08:38.763Z,1.01
2023-02-01T13:09:38.772Z,1.14
2023-02-01T13:10:38.856Z,1.12
2023-02-01T13:11:38.750Z,0.87
2023-02-01T13:12:38.757Z,0.77
2023-02-01T13:13:38.745Z,0.86
2023-02-01T13:14:38.765Z,1.14
2023-02-01T13:15:38.762Z,1.15
2023-02-01T13:16:38.765Z,2.11
2023-02-01T13:17:38.757Z,2.91
2023-02-01T13:18:38.765Z,2.91
2023-02-01T13:19:38.763Z,1.09
2023-02-01T13:20:38.737Z,1.09
2023-02-01T13:21:38.744Z,0.52
2023-02-01T13:22:38.752Z,0.33
2023-02-01T13:23:38.734Z,0.23
2023-02-01T13:24:38.776Z,0.2
2023-02-01T13:25:38.733Z,0.28
2023-02-01T13:26:38.771Z,0.32
2023-02-01T13:27:38.760Z,0.33
2023-02-01T13:28:40.551Z,0.33
2023-02-01T13:29:38.773Z,0.3
2023-02-01T13:30:38.800Z,0.3
2023-02-01T13:31:38.885Z,0.29
2023-02-01T13:32:54.828Z,0.25
2023-02-01T13:33:55.203Z,0.24
2023-02-01T13:34:38.763Z,0.32
2023-02-01T13:35:38.756Z,0.35
2023-02-01T13:36:38.756Z,0.27
2023-02-01T13:37:38.734Z,0.19
2023-02-01T13:38:38.747Z,0.14
2023-02-01T13:39:38.757Z,0.15
2023-02-01T13:40:38.730Z,0.15
2023-02-01T13:41:38.766Z,0.26
2023-02-01T13:42:38.747Z,0.29
2023-02-01T13:43:38.767Z,0.37
2023-02-01T13:44:38.760Z,0.31
2023-02-01T13:45:38.796Z,0.28
2023-02-01T13:46:38.740Z,0.33
2023-02-01T13:47:38.733Z,0.33
2023-02-01T13:48:38.729Z,0.25
2023-02-01T13:49:38.754Z,0.2
2023-02-01T13:50:38.745Z,0.2
2023-02-01T13:51:38.725Z,0.14
2023-02-01T13:52:38.746Z,0.18
2023-02-01T13:53:38.768Z,0.16
2023-02-01T13:54:38.747Z,0.15
2023-02-01T13:55:38.733Z,0.14
2023-02-01T13:56:38.734Z,0.17
2023-02-01T13:57:38.733Z,0.25
2023-02-01T13:58:38.784Z,0.3
2023-02-01T13:59:38.795Z,0.3